Alturas, California
Current Conditions -  °F | °C
As of 11:55 AM on Thursday 30 Oct 2014 (Local Time) from KAAT Reporting Station
Clear Clear  
Wind Chill: 67°   Ceiling: Unl
Heat Index: 67°   Visibility: 10mi
Dew Point: 38°   Wind: 5mph
Humidity: 34%   Direction: 200°SSW
Pressure: 30.04"   Gusts: NA
Location:  41.49°N, 120.54°W
Report Text: KAAT 301855Z AUTO 20004KT 10SM CLR 19/03 A3004 RMK AO2 SLP150 T01940033
Loading
Personal Weather Stations






























Interactive Weather Map New forecast layout! Learn more

10-Day Weather Forecast

Advertisements
Track Severe Weather on mobile